createdAt,value
2018-09-24T00:02:07.719Z,0.73
2018-09-24T00:04:35.798Z,0.40
2018-09-24T00:07:03.879Z,0.70
2018-09-24T00:09:32.495Z,0.90
2018-09-24T00:12:00.546Z,0.40
2018-09-24T00:14:28.633Z,0.53
2018-09-24T00:16:56.682Z,0.43
2018-09-24T00:19:24.734Z,0.40
2018-09-24T00:21:52.765Z,0.60
2018-09-24T00:24:20.840Z,0.30
2018-09-24T00:26:48.917Z,0.30
2018-09-24T00:29:16.964Z,0.30
2018-09-24T00:31:45.031Z,0.40
2018-09-24T00:34:13.092Z,0.40
2018-09-24T00:36:41.138Z,0.40
2018-09-24T00:39:10.397Z,0.40
2018-09-24T00:41:38.870Z,0.40
2018-09-24T00:44:07.106Z,0.50
2018-09-24T00:46:35.534Z,0.40
2018-09-24T00:49:03.623Z,3.40
2018-09-24T00:51:31.676Z,0.53
2018-09-24T00:53:59.770Z,0.30
2018-09-24T00:56:28.012Z,0.30
2018-09-24T00:58:56.045Z,0.30
2018-09-24T01:01:24.143Z,0.30
2018-09-24T01:03:52.216Z,0.40
2018-09-24T01:06:20.349Z,0.30
2018-09-24T01:08:48.400Z,0.50
2018-09-24T01:11:16.553Z,0.30
2018-09-24T01:13:44.572Z,0.40
2018-09-24T01:16:12.643Z,0.30
2018-09-24T01:18:40.718Z,0.30
2018-09-24T01:21:08.961Z,0.30
2018-09-24T01:23:37.016Z,0.30
2018-09-24T01:26:05.105Z,0.37
2018-09-24T01:28:33.233Z,0.40
2018-09-24T01:31:01.282Z,0.30
2018-09-24T01:33:29.368Z,0.30
2018-09-24T01:35:57.419Z,0.33
2018-09-24T01:38:25.466Z,0.40
2018-09-24T01:40:53.516Z,0.40
2018-09-24T01:43:21.558Z,0.40
2018-09-24T01:45:50.073Z,0.40
2018-09-24T01:48:18.136Z,0.40
2018-09-24T01:50:46.207Z,0.30
2018-09-24T01:53:14.228Z,0.40
2018-09-24T01:55:43.480Z,0.40
2018-09-24T01:58:11.542Z,0.30
2018-09-24T02:00:39.614Z,0.30
2018-09-24T02:03:07.652Z,0.30
2018-09-24T02:05:35.711Z,0.37
2018-09-24T02:08:03.786Z,0.40
2018-09-24T02:10:31.849Z,0.30
2018-09-24T02:12:59.892Z,0.30
2018-09-24T02:15:30.726Z,0.40
2018-09-24T02:17:58.919Z,0.70
2018-09-24T02:20:27.598Z,0.30
2018-09-24T02:22:55.664Z,0.30
2018-09-24T02:25:23.747Z,0.40
2018-09-24T02:27:51.837Z,0.40
2018-09-24T02:30:20.185Z,0.40
2018-09-24T02:32:48.250Z,0.30
2018-09-24T02:35:16.382Z,0.40
2018-09-24T02:37:44.441Z,0.30
2018-09-24T02:40:18.133Z,0.30
2018-09-24T02:42:46.252Z,0.30
2018-09-24T02:45:14.300Z,0.40
2018-09-24T02:47:42.334Z,0.50
2018-09-24T02:50:10.411Z,0.30
2018-09-24T02:52:38.456Z,0.37
2018-09-24T02:55:13.611Z,0.30
2018-09-24T02:57:42.189Z,0.40
2018-09-24T03:00:10.700Z,0.37
2018-09-24T03:02:39.122Z,0.40
2018-09-24T03:05:07.286Z,0.40
2018-09-24T03:07:35.704Z,0.40
2018-09-24T03:10:03.854Z,0.70
2018-09-24T03:12:31.925Z,0.30
2018-09-24T03:14:59.981Z,0.40
2018-09-24T03:17:28.148Z,0.30
2018-09-24T03:19:56.839Z,0.30
2018-09-24T03:22:25.665Z,0.40
2018-09-24T03:24:54.618Z,0.30
2018-09-24T03:27:23.251Z,0.40
2018-09-24T03:29:51.374Z,0.40
2018-09-24T03:32:19.539Z,0.40
2018-09-24T03:34:47.580Z,0.40
2018-09-24T03:37:15.645Z,0.40
2018-09-24T03:39:43.788Z,0.30
2018-09-24T03:42:11.831Z,0.70
2018-09-24T03:44:39.869Z,0.40
2018-09-24T03:47:07.941Z,0.40
2018-09-24T03:49:36.004Z,0.30
2018-09-24T03:52:04.117Z,0.40
2018-09-24T03:54:32.144Z,0.30
2018-09-24T03:57:00.540Z,0.70
2018-09-24T03:59:28.628Z,0.50
2018-09-24T04:01:56.712Z,0.60
2018-09-24T04:04:30.313Z,0.50
2018-09-24T04:07:03.709Z,0.50
2018-09-24T04:09:37.357Z,0.40
2018-09-24T04:12:10.937Z,0.47
2018-09-24T04:14:44.641Z,0.80
2018-09-24T04:17:18.267Z,0.47
2018-09-24T04:19:51.736Z,0.50
2018-09-24T04:22:25.343Z,0.43
2018-09-24T04:24:58.999Z,1.00
2018-09-24T04:27:32.580Z,0.60
2018-09-24T04:30:06.203Z,0.40
2018-09-24T04:32:39.940Z,0.70
2018-09-24T04:35:13.588Z,0.43
2018-09-24T04:37:47.060Z,0.40
2018-09-24T04:40:20.604Z,0.40
2018-09-24T04:42:54.148Z,0.73
2018-09-24T04:45:27.620Z,0.60
2018-09-24T04:48:01.124Z,0.50
2018-09-24T04:50:34.665Z,0.50
2018-09-24T04:53:08.282Z,0.37
2018-09-24T04:55:41.703Z,0.40
2018-09-24T04:58:15.283Z,0.50
2018-09-24T05:00:49.465Z,0.30
2018-09-24T05:03:23.134Z,0.30
2018-09-24T05:05:56.684Z,0.40
2018-09-24T05:08:30.140Z,0.30
2018-09-24T05:11:03.715Z,0.40
2018-09-24T05:13:37.161Z,0.40
2018-09-24T05:16:10.817Z,0.30
2018-09-24T05:18:44.437Z,0.30
2018-09-24T05:21:17.910Z,0.30
2018-09-24T05:23:51.538Z,0.53
2018-09-24T05:26:25.213Z,0.47
2018-09-24T05:28:59.722Z,0.30
2018-09-24T05:31:33.216Z,0.30
2018-09-24T05:34:06.708Z,0.33
2018-09-24T05:36:40.293Z,0.30
2018-09-24T05:39:14.477Z,0.30
2018-09-24T05:41:48.166Z,0.30
2018-09-24T05:44:21.604Z,0.40
2018-09-24T05:46:55.223Z,0.40
2018-09-24T05:49:28.667Z,0.30
2018-09-24T05:52:02.215Z,0.30
2018-09-24T05:54:35.835Z,0.30
2018-09-24T05:57:09.456Z,0.47
2018-09-24T05:59:42.887Z,0.50
2018-09-24T06:02:16.371Z,0.40
2018-09-24T06:04:49.792Z,0.40
2018-09-24T06:07:23.409Z,0.30
2018-09-24T06:09:56.837Z,0.30
2018-09-24T06:12:30.255Z,0.40
2018-09-24T06:15:03.688Z,0.33
2018-09-24T06:17:37.260Z,0.30
2018-09-24T06:20:10.995Z,0.37
2018-09-24T06:22:44.478Z,0.23
2018-09-24T06:25:18.056Z,0.43
2018-09-24T06:27:51.620Z,0.30
2018-09-24T06:30:25.093Z,0.30
2018-09-24T06:32:58.509Z,0.40
2018-09-24T06:35:32.158Z,0.30
2018-09-24T06:38:06.412Z,0.33
2018-09-24T06:40:39.883Z,0.40
2018-09-24T06:43:13.556Z,0.40
2018-09-24T06:45:46.941Z,0.40
2018-09-24T06:48:20.543Z,0.40
2018-09-24T06:50:54.270Z,0.40
2018-09-24T06:53:27.691Z,0.30
2018-09-24T06:56:01.130Z,0.43
2018-09-24T06:58:34.807Z,0.40
2018-09-24T07:01:08.365Z,0.40
2018-09-24T07:03:41.969Z,0.40
2018-09-24T07:06:15.510Z,0.53
2018-09-24T07:08:49.118Z,0.40
2018-09-24T07:11:22.695Z,0.33
2018-09-24T07:13:56.267Z,0.30
2018-09-24T07:16:29.760Z,0.37
2018-09-24T07:19:03.292Z,0.30
2018-09-24T07:21:37.036Z,0.30
2018-09-24T07:24:10.385Z,0.40
2018-09-24T07:26:44.589Z,0.40
2018-09-24T07:29:24.902Z,0.30
2018-09-24T07:31:58.537Z,0.37
2018-09-24T07:34:32.117Z,0.30
2018-09-24T07:37:05.800Z,0.40
2018-09-24T07:39:39.407Z,0.30
2018-09-24T07:42:13.353Z,0.40
2018-09-24T07:44:46.853Z,0.30
2018-09-24T07:47:20.531Z,0.40
2018-09-24T07:49:54.075Z,0.40
2018-09-24T07:52:27.711Z,0.40
2018-09-24T07:55:01.284Z,0.40
2018-09-24T07:57:34.986Z,0.40
2018-09-24T08:00:08.562Z,0.40
2018-09-24T08:02:42.306Z,0.40
2018-09-24T08:05:15.993Z,0.90
2018-09-24T08:07:49.687Z,0.53
2018-09-24T08:10:23.237Z,0.40
2018-09-24T08:12:56.795Z,0.30
2018-09-24T08:15:30.389Z,0.30
2018-09-24T08:18:04.178Z,0.40
2018-09-24T08:20:37.817Z,0.40
2018-09-24T08:23:11.371Z,0.40
2018-09-24T08:25:45.073Z,0.40
2018-09-24T08:28:19.666Z,0.33
2018-09-24T08:30:53.868Z,0.40
2018-09-24T08:33:27.479Z,0.30
2018-09-24T08:36:01.214Z,0.30
2018-09-24T08:38:34.734Z,0.37
2018-09-24T08:41:08.386Z,0.30
2018-09-24T08:43:42.100Z,0.40
2018-09-24T08:46:15.539Z,0.47
2018-09-24T08:48:49.151Z,0.40
2018-09-24T08:51:22.810Z,0.40
2018-09-24T08:53:56.443Z,0.47
2018-09-24T08:56:29.884Z,0.60
2018-09-24T08:59:03.430Z,0.50
2018-09-24T09:01:37.071Z,0.60
2018-09-24T09:04:11.238Z,0.53
2018-09-24T09:06:44.836Z,0.55
2018-09-24T09:09:18.564Z,0.60
2018-09-24T09:11:52.077Z,0.70
2018-09-24T09:14:25.562Z,0.90
2018-09-24T09:16:59.206Z,0.65
2018-09-24T09:19:32.806Z,0.60
2018-09-24T09:22:06.368Z,0.60
2018-09-24T09:24:40.003Z,0.55
2018-09-24T09:27:13.675Z,0.60
2018-09-24T09:29:47.230Z,0.75
2018-09-24T09:32:20.844Z,0.70
2018-09-24T09:34:54.390Z,0.60
2018-09-24T09:37:28.107Z,0.60
2018-09-24T09:40:01.642Z,0.65
2018-09-24T09:42:35.089Z,0.50
2018-09-24T09:45:08.815Z,0.70
2018-09-24T09:47:42.450Z,0.65
2018-09-24T09:50:15.940Z,0.68
2018-09-24T09:52:49.410Z,0.60
2018-09-24T09:55:22.910Z,0.78
2018-09-24T09:57:56.595Z,0.80
2018-09-24T10:00:30.042Z,0.80
2018-09-24T10:03:03.670Z,0.70
2018-09-24T10:05:37.348Z,0.62
2018-09-24T10:08:11.010Z,0.65
2018-09-24T10:10:44.593Z,0.90
2018-09-24T10:13:18.059Z,0.75
2018-09-24T10:15:51.681Z,0.70
2018-09-24T10:18:25.298Z,0.70
2018-09-24T10:20:58.759Z,0.60
2018-09-24T10:23:32.410Z,0.50
2018-09-24T10:26:05.942Z,0.62
2018-09-24T10:28:39.602Z,0.80
2018-09-24T10:31:14.505Z,0.75
2018-09-24T10:33:48.192Z,0.80
2018-09-24T10:36:21.535Z,0.60
2018-09-24T10:38:55.158Z,0.60
2018-09-24T10:41:28.663Z,0.70
2018-09-24T10:44:02.354Z,0.80
2018-09-24T10:46:36.051Z,0.57
2018-09-24T10:49:09.749Z,0.50
2018-09-24T10:51:43.397Z,0.50
2018-09-24T10:54:17.054Z,0.47
2018-09-24T10:56:50.676Z,0.50
2018-09-24T10:59:24.155Z,0.42
2018-09-24T11:01:57.733Z,0.60
2018-09-24T11:04:31.329Z,0.50
2018-09-24T11:07:05.003Z,0.65
2018-09-24T11:09:38.437Z,0.60
2018-09-24T11:12:11.930Z,0.70
2018-09-24T11:14:45.754Z,0.55
2018-09-24T11:17:19.478Z,0.72
2018-09-24T11:19:53.012Z,0.65
2018-09-24T11:22:26.728Z,0.57
2018-09-24T11:25:00.284Z,0.65
2018-09-24T11:27:33.741Z,0.60
2018-09-24T11:30:07.256Z,0.80
2018-09-24T11:32:40.931Z,0.70
2018-09-24T11:35:14.601Z,0.90
2018-09-24T11:37:48.238Z,0.62
2018-09-24T11:40:21.723Z,0.78
2018-09-24T11:42:55.378Z,0.70
2018-09-24T11:45:28.944Z,0.80
2018-09-24T11:48:02.569Z,0.75
2018-09-24T11:50:36.222Z,0.70
2018-09-24T11:53:09.980Z,1.00
2018-09-24T11:55:43.425Z,0.80
2018-09-24T11:58:17.017Z,0.70
2018-09-24T12:00:50.477Z,0.98
2018-09-24T12:03:24.089Z,0.90
2018-09-24T12:05:57.758Z,1.05
2018-09-24T12:08:31.304Z,0.80
2018-09-24T12:11:05.013Z,0.70
2018-09-24T12:13:38.637Z,0.90
2018-09-24T12:16:12.111Z,0.90
2018-09-24T12:18:45.713Z,0.78
2018-09-24T12:21:19.424Z,0.75
2018-09-24T12:23:52.935Z,1.00
2018-09-24T12:26:26.524Z,1.37
2018-09-24T12:29:00.220Z,0.80
2018-09-24T12:31:33.829Z,0.60
2018-09-24T12:34:07.475Z,0.50
2018-09-24T12:36:40.930Z,0.45
2018-09-24T12:39:14.668Z,0.62
2018-09-24T12:41:48.226Z,0.50
2018-09-24T12:44:21.744Z,0.60
2018-09-24T12:46:55.236Z,0.70
2018-09-24T12:49:28.652Z,0.60
2018-09-24T12:52:02.172Z,0.70
2018-09-24T12:54:35.740Z,0.80
2018-09-24T12:57:09.404Z,0.80
2018-09-24T12:59:42.980Z,0.78
2018-09-24T13:02:16.627Z,0.88
2018-09-24T13:04:50.281Z,0.62
2018-09-24T13:07:23.939Z,0.78
2018-09-24T13:09:57.582Z,0.60
2018-09-24T13:12:31.284Z,0.50
2018-09-24T13:15:04.979Z,0.50
2018-09-24T13:17:38.610Z,0.40
2018-09-24T13:20:12.405Z,0.70
2018-09-24T13:22:46.052Z,0.30
2018-09-24T13:25:19.718Z,0.40
2018-09-24T13:27:53.400Z,0.70
2018-09-24T13:30:27.079Z,0.90
2018-09-24T13:33:00.838Z,0.40
2018-09-24T13:35:34.327Z,0.60
2018-09-24T13:38:07.811Z,0.57
2018-09-24T13:40:41.432Z,0.40
2018-09-24T13:43:15.004Z,0.50
2018-09-24T13:45:48.396Z,0.50
2018-09-24T13:48:21.931Z,0.78
2018-09-24T13:50:55.560Z,0.75
2018-09-24T13:53:29.323Z,0.80
2018-09-24T13:56:02.885Z,0.93
2018-09-24T13:58:36.436Z,0.78
2018-09-24T14:01:09.945Z,0.70
2018-09-24T14:03:43.285Z,0.70
2018-09-24T14:06:16.859Z,0.85
2018-09-24T14:08:50.253Z,0.40
2018-09-24T14:11:23.760Z,0.77
2018-09-24T14:13:57.121Z,0.63
2018-09-24T14:16:30.864Z,0.40
2018-09-24T14:19:04.448Z,0.50
2018-09-24T14:21:37.986Z,0.50
2018-09-24T14:24:11.501Z,0.47
2018-09-24T14:26:44.821Z,0.50
2018-09-24T14:29:18.355Z,0.60
2018-09-24T14:31:51.970Z,0.63
2018-09-24T14:34:25.386Z,0.80
2018-09-24T14:36:58.761Z,0.70
2018-09-24T14:39:32.377Z,0.40
2018-09-24T14:42:06.044Z,0.63
2018-09-24T14:44:39.745Z,0.60
2018-09-24T14:47:13.341Z,0.90
2018-09-24T14:49:47.024Z,0.57
2018-09-24T14:52:21.400Z,0.70
2018-09-24T14:54:54.806Z,0.60
2018-09-24T14:57:28.405Z,0.50
2018-09-24T15:00:01.986Z,0.70
2018-09-24T15:02:35.576Z,0.60
2018-09-24T15:05:09.342Z,0.60
2018-09-24T15:07:42.855Z,0.60
2018-09-24T15:10:16.370Z,0.70
2018-09-24T15:12:49.768Z,0.80
2018-09-24T15:15:23.264Z,0.87
2018-09-24T15:17:56.702Z,0.50
2018-09-24T15:20:30.366Z,0.50
2018-09-24T15:23:04.127Z,0.60
2018-09-24T15:25:37.826Z,0.70
2018-09-24T15:28:11.338Z,0.70
2018-09-24T15:30:45.023Z,0.40
2018-09-24T15:33:18.762Z,0.50
2018-09-24T15:35:52.467Z,0.50
2018-09-24T15:38:26.125Z,0.60
2018-09-24T15:40:59.671Z,0.60
2018-09-24T15:43:33.130Z,0.60
2018-09-24T15:46:06.850Z,0.40
2018-09-24T15:48:40.388Z,0.73
2018-09-24T15:51:14.626Z,0.80
2018-09-24T15:53:48.092Z,0.80
2018-09-24T15:56:21.541Z,0.53
2018-09-24T15:58:54.968Z,0.70
2018-09-24T16:01:28.390Z,0.70
2018-09-24T16:04:02.096Z,0.80
2018-09-24T16:06:35.727Z,0.73
2018-09-24T16:09:10.558Z,0.87
2018-09-24T16:11:44.166Z,0.80
2018-09-24T16:14:17.690Z,1.03
2018-09-24T16:16:51.211Z,0.80
2018-09-24T16:19:24.875Z,0.60
2018-09-24T16:21:58.581Z,1.23
2018-09-24T16:24:32.222Z,2.60
2018-09-24T16:27:05.838Z,1.40
2018-09-24T16:29:39.484Z,0.93
2018-09-24T16:32:12.983Z,1.20
2018-09-24T16:34:46.531Z,0.80
2018-09-24T16:37:20.074Z,0.50
2018-09-24T16:39:53.715Z,2.17
2018-09-24T16:42:27.407Z,1.73
2018-09-24T16:45:01.649Z,1.47
2018-09-24T16:47:35.760Z,1.37
2018-09-24T16:50:09.484Z,1.23
2018-09-24T16:52:44.052Z,0.63
2018-09-24T16:55:17.833Z,1.00
2018-09-24T16:57:51.289Z,1.07
2018-09-24T17:00:25.239Z,0.80
2018-09-24T17:02:58.933Z,0.90
2018-09-24T17:05:32.598Z,1.00
2018-09-24T17:08:06.381Z,1.03
2018-09-24T17:10:40.241Z,0.70
2018-09-24T17:13:13.835Z,0.90
2018-09-24T17:15:47.872Z,0.93
2018-09-24T17:18:21.712Z,0.73
2018-09-24T17:20:55.249Z,1.07
2018-09-24T17:23:28.904Z,0.70
2018-09-24T17:26:02.528Z,0.80
2018-09-24T17:28:36.210Z,1.00
2018-09-24T17:31:09.692Z,1.17
2018-09-24T17:33:43.220Z,0.60
2018-09-24T17:36:16.929Z,0.60
2018-09-24T17:38:50.513Z,1.00
2018-09-24T17:41:24.170Z,0.70
2018-09-24T17:43:58.401Z,0.80
2018-09-24T17:46:31.903Z,0.70
2018-09-24T17:49:05.398Z,0.90
2018-09-24T17:51:38.865Z,0.90
2018-09-24T17:54:12.483Z,0.70
2018-09-24T17:56:46.097Z,2.07
2018-09-24T17:59:20.559Z,0.90
2018-09-24T18:01:54.172Z,1.70
2018-09-24T18:04:27.762Z,1.60
2018-09-24T18:07:01.317Z,1.47
2018-09-24T18:09:35.032Z,1.33
2018-09-24T18:12:08.763Z,1.10
2018-09-24T18:14:42.425Z,1.10
2018-09-24T18:17:15.975Z,1.40
2018-09-24T18:19:49.590Z,0.90
2018-09-24T18:22:23.177Z,1.20
2018-09-24T18:24:57.670Z,1.33
2018-09-24T18:27:31.409Z,1.07
2018-09-24T18:30:04.864Z,1.10
2018-09-24T18:32:38.444Z,1.00
2018-09-24T18:35:12.114Z,1.10
2018-09-24T18:37:45.566Z,1.13
2018-09-24T18:40:19.265Z,0.97
2018-09-24T18:42:52.846Z,0.70
2018-09-24T18:45:26.554Z,1.20
2018-09-24T18:48:00.042Z,1.23
2018-09-24T18:50:33.699Z,0.80
2018-09-24T18:53:07.412Z,1.10
2018-09-24T18:55:40.985Z,0.80
2018-09-24T18:58:14.636Z,1.57
2018-09-24T19:00:48.217Z,0.53
2018-09-24T19:03:21.891Z,0.87
2018-09-24T19:05:55.538Z,0.73
2018-09-24T19:08:29.143Z,0.90
2018-09-24T19:11:02.729Z,2.20
2018-09-24T19:13:36.149Z,5.13
2018-09-24T19:16:09.824Z,3.90
2018-09-24T19:18:43.234Z,2.23
2018-09-24T19:21:16.846Z,3.33
2018-09-24T19:23:50.536Z,1.57
2018-09-24T19:26:24.706Z,2.03
2018-09-24T19:28:58.343Z,3.03
2018-09-24T19:31:32.035Z,2.00
2018-09-24T19:34:05.612Z,1.50
2018-09-24T19:36:39.196Z,1.57
2018-09-24T19:39:13.774Z,1.37
2018-09-24T19:41:47.655Z,0.83
2018-09-24T19:44:21.323Z,0.70
2018-09-24T19:46:54.892Z,0.80
2018-09-24T19:49:28.289Z,0.77
2018-09-24T19:52:01.975Z,1.00
2018-09-24T19:54:35.478Z,0.70
2018-09-24T19:57:09.003Z,0.87
2018-09-24T19:59:42.608Z,0.90
2018-09-24T20:02:16.293Z,0.83
2018-09-24T20:04:49.817Z,1.40
2018-09-24T20:07:23.375Z,1.17
2018-09-24T20:09:56.985Z,0.83
2018-09-24T20:12:30.562Z,0.77
2018-09-24T20:15:03.973Z,1.13
2018-09-24T20:17:37.665Z,0.83
2018-09-24T20:20:11.105Z,0.80
2018-09-24T20:22:44.648Z,0.90
2018-09-24T20:25:18.061Z,0.90
2018-09-24T20:27:51.569Z,0.80
2018-09-24T20:30:25.021Z,1.03
2018-09-24T20:32:58.559Z,1.10
2018-09-24T20:35:32.106Z,0.80
2018-09-24T20:38:05.730Z,0.83
2018-09-24T20:40:39.321Z,1.03
2018-09-24T20:43:12.880Z,0.87
2018-09-24T20:45:46.299Z,0.83
2018-09-24T20:48:19.913Z,1.60
2018-09-24T20:50:53.520Z,0.80
2018-09-24T20:53:27.152Z,0.80
2018-09-24T20:56:00.560Z,1.33
2018-09-24T20:58:34.017Z,0.87
2018-09-24T21:01:07.700Z,0.80
2018-09-24T21:03:41.302Z,0.80
2018-09-24T21:06:14.980Z,1.00
2018-09-24T21:08:48.419Z,0.93
2018-09-24T21:11:22.083Z,0.80
2018-09-24T21:13:55.565Z,0.63
2018-09-24T21:16:28.980Z,0.70
2018-09-24T21:19:02.513Z,0.63
2018-09-24T21:21:36.176Z,0.73
2018-09-24T21:24:09.789Z,0.70
2018-09-24T21:26:43.336Z,1.07
2018-09-24T21:29:16.836Z,0.70
2018-09-24T21:31:50.530Z,0.50
2018-09-24T21:34:24.102Z,1.07
2018-09-24T21:36:57.553Z,0.50
2018-09-24T21:39:31.038Z,0.60
2018-09-24T21:42:04.465Z,0.83
2018-09-24T21:44:37.952Z,0.90
2018-09-24T21:47:11.574Z,0.90
2018-09-24T21:49:45.253Z,0.80
2018-09-24T21:52:18.845Z,0.83
2018-09-24T21:54:52.306Z,0.80
2018-09-24T21:57:25.858Z,0.50
2018-09-24T21:59:59.401Z,0.80
2018-09-24T22:02:33.084Z,0.63
2018-09-24T22:05:06.702Z,0.80
2018-09-24T22:07:40.291Z,1.00
2018-09-24T22:10:13.857Z,0.67
2018-09-24T22:12:47.409Z,0.70
2018-09-24T22:15:20.858Z,1.20
2018-09-24T22:17:54.537Z,0.70
2018-09-24T22:20:28.137Z,0.80
2018-09-24T22:23:01.683Z,0.80
2018-09-24T22:25:35.158Z,0.80
2018-09-24T22:28:08.775Z,1.03
2018-09-24T22:30:42.293Z,1.00
2018-09-24T22:33:15.842Z,0.70
2018-09-24T22:35:49.512Z,0.60
2018-09-24T22:38:23.002Z,0.80
2018-09-24T22:40:56.457Z,0.70
2018-09-24T22:43:30.077Z,0.60
2018-09-24T22:46:03.566Z,0.70
2018-09-24T22:48:37.281Z,0.50
2018-09-24T22:51:10.865Z,0.93
2018-09-24T22:53:44.507Z,0.70
2018-09-24T22:56:18.066Z,0.70
2018-09-24T22:58:51.499Z,0.43
2018-09-24T23:01:24.890Z,0.70
2018-09-24T23:03:58.438Z,0.73
2018-09-24T23:06:31.963Z,0.90
2018-09-24T23:09:05.410Z,0.80
2018-09-24T23:11:38.934Z,0.73
2018-09-24T23:14:12.569Z,0.70
2018-09-24T23:16:46.269Z,0.83
2018-09-24T23:19:19.942Z,0.87
2018-09-24T23:21:53.519Z,0.60
2018-09-24T23:24:27.080Z,0.70
2018-09-24T23:27:00.479Z,0.67
2018-09-24T23:29:34.166Z,0.80
2018-09-24T23:32:07.867Z,0.80
2018-09-24T23:34:41.456Z,0.63
2018-09-24T23:37:15.184Z,0.80
2018-09-24T23:39:48.847Z,0.87
2018-09-24T23:42:22.493Z,0.60
2018-09-24T23:44:56.082Z,0.67
2018-09-24T23:47:29.686Z,0.90
2018-09-24T23:50:03.218Z,0.70
2018-09-24T23:52:36.808Z,0.80
2018-09-24T23:55:10.441Z,1.03
2018-09-24T23:57:43.960Z,1.00
